sensor_id;sensor_type;location;lat;lon;timestamp;temperature;humidity
28336;DHT22;15592;53.656;7.276;2023-04-03T00:00:32;2.20;99.90
28336;DHT22;15592;53.656;7.276;2023-04-03T00:02:58;2.10;99.90
28336;DHT22;15592;53.656;7.276;2023-04-03T00:05:23;2.10;99.90
28336;DHT22;15592;53.656;7.276;2023-04-03T00:07:49;2.10;99.90
28336;DHT22;15592;53.656;7.276;2023-04-03T00:10:15;2.00;99.90
28336;DHT22;15592;53.656;7.276;2023-04-03T00:12:41;2.00;99.90
28336;DHT22;15592;53.656;7.276;2023-04-03T00:15:07;2.00;99.90
28336;DHT22;15592;53.656;7.276;2023-04-03T00:17:33;1.90;99.90
28336;DHT22;15592;53.656;7.276;2023-04-03T00:19:59;1.90;99.90
28336;DHT22;15592;53.656;7.276;2023-04-03T00:22:24;1.90;99.90
28336;DHT22;15592;53.656;7.276;2023-04-03T00:24:52;1.80;99.90
28336;DHT22;15592;53.656;7.276;2023-04-03T00:27:17;1.70;99.90
28336;DHT22;15592;53.656;7.276;2023-04-03T00:29:43;1.70;99.90
28336;DHT22;15592;53.656;7.276;2023-04-03T00:32:08;1.70;99.90
28336;DHT22;15592;53.656;7.276;2023-04-03T00:34:34;1.70;99.90
28336;DHT22;15592;53.656;7.276;2023-04-03T00:36:59;1.60;99.90
28336;DHT22;15592;53.656;7.276;2023-04-03T00:39:25;1.60;99.90
28336;DHT22;15592;53.656;7.276;2023-04-03T00:41:51;1.60;99.90
28336;DHT22;15592;53.656;7.276;2023-04-03T00:46:49;1.50;99.90
28336;DHT22;15592;53.656;7.276;2023-04-03T00:49:14;1.50;99.90
28336;DHT22;15592;53.656;7.276;2023-04-03T00:51:40;1.50;99.90
28336;DHT22;15592;53.656;7.276;2023-04-03T00:54:07;1.50;99.90
28336;DHT22;15592;53.656;7.276;2023-04-03T00:56:33;1.50;99.90
28336;DHT22;15592;53.656;7.276;2023-04-03T00:59:16;1.50;99.90
28336;DHT22;15592;53.656;7.276;2023-04-03T01:01:48;1.40;99.90
28336;DHT22;15592;53.656;7.276;2023-04-03T01:04:36;1.40;99.90
28336;DHT22;15592;53.656;7.276;2023-04-03T01:07:11;1.40;99.90
28336;DHT22;15592;53.656;7.276;2023-04-03T01:09:39;1.40;99.90
28336;DHT22;15592;53.656;7.276;2023-04-03T01:12:22;1.30;99.90
28336;DHT22;15592;53.656;7.276;2023-04-03T01:14:51;1.30;99.90
28336;DHT22;15592;53.656;7.276;2023-04-03T01:17:31;1.30;99.90
28336;DHT22;15592;53.656;7.276;2023-04-03T01:28:12;1.20;99.90
28336;DHT22;15592;53.656;7.276;2023-04-03T01:30:53;1.20;99.90
28336;DHT22;15592;53.656;7.276;2023-04-03T01:33:20;1.20;99.90
28336;DHT22;15592;53.656;7.276;2023-04-03T01:35:46;1.20;99.90
28336;DHT22;15592;53.656;7.276;2023-04-03T01:38:12;1.20;99.90
28336;DHT22;15592;53.656;7.276;2023-04-03T01:40:37;1.20;99.90
28336;DHT22;15592;53.656;7.276;2023-04-03T01:43:03;1.20;99.90
28336;DHT22;15592;53.656;7.276;2023-04-03T01:45:28;1.20;99.90
28336;DHT22;15592;53.656;7.276;2023-04-03T01:47:54;1.20;99.90
28336;DHT22;15592;53.656;7.276;2023-04-03T01:50:20;1.20;99.90
28336;DHT22;15592;53.656;7.276;2023-04-03T01:52:45;1.20;99.90
28336;DHT22;15592;53.656;7.276;2023-04-03T01:55:11;1.20;99.90
28336;DHT22;15592;53.656;7.276;2023-04-03T01:57:37;1.20;99.90
28336;DHT22;15592;53.656;7.276;2023-04-03T02:00:03;1.20;99.90
28336;DHT22;15592;53.656;7.276;2023-04-03T02:02:28;1.20;99.90
28336;DHT22;15592;53.656;7.276;2023-04-03T02:04:54;1.20;99.90
28336;DHT22;15592;53.656;7.276;2023-04-03T02:07:20;1.20;99.90
28336;DHT22;15592;53.656;7.276;2023-04-03T02:09:45;1.20;99.90
28336;DHT22;15592;53.656;7.276;2023-04-03T02:12:11;1.20;99.90
28336;DHT22;15592;53.656;7.276;2023-04-03T02:14:37;1.10;99.90
28336;DHT22;15592;53.656;7.276;2023-04-03T02:17:02;1.10;99.90
28336;DHT22;15592;53.656;7.276;2023-04-03T02:19:30;1.10;99.90
28336;DHT22;15592;53.656;7.276;2023-04-03T02:21:56;1.10;99.90
28336;DHT22;15592;53.656;7.276;2023-04-03T02:24:22;1.00;99.90
28336;DHT22;15592;53.656;7.276;2023-04-03T02:26:47;1.00;99.90
28336;DHT22;15592;53.656;7.276;2023-04-03T02:29:13;1.00;99.90
28336;DHT22;15592;53.656;7.276;2023-04-03T02:31:39;1.00;99.90
28336;DHT22;15592;53.656;7.276;2023-04-03T02:34:04;1.00;99.90
28336;DHT22;15592;53.656;7.276;2023-04-03T02:36:31;1.00;99.90
28336;DHT22;15592;53.656;7.276;2023-04-03T02:38:56;1.00;99.90
28336;DHT22;15592;53.656;7.276;2023-04-03T02:41:22;1.00;99.90
28336;DHT22;15592;53.656;7.276;2023-04-03T02:43:47;1.00;99.90
28336;DHT22;15592;53.656;7.276;2023-04-03T02:46:13;1.00;99.90
28336;DHT22;15592;53.656;7.276;2023-04-03T02:48:40;0.90;99.90
28336;DHT22;15592;53.656;7.276;2023-04-03T02:51:06;0.90;99.90
28336;DHT22;15592;53.656;7.276;2023-04-03T02:53:31;0.90;99.90
28336;DHT22;15592;53.656;7.276;2023-04-03T02:55:57;0.90;99.90
28336;DHT22;15592;53.656;7.276;2023-04-03T02:58:23;0.90;99.90
28336;DHT22;15592;53.656;7.276;2023-04-03T03:00:48;0.80;99.90
28336;DHT22;15592;53.656;7.276;2023-04-03T03:03:14;0.80;99.90
28336;DHT22;15592;53.656;7.276;2023-04-03T03:05:40;0.80;99.90
28336;DHT22;15592;53.656;7.276;2023-04-03T03:08:05;0.80;99.90
28336;DHT22;15592;53.656;7.276;2023-04-03T03:10:31;0.80;99.90
28336;DHT22;15592;53.656;7.276;2023-04-03T03:12:57;0.70;99.90
28336;DHT22;15592;53.656;7.276;2023-04-03T03:15:22;0.70;99.90
28336;DHT22;15592;53.656;7.276;2023-04-03T03:17:48;0.80;99.90
28336;DHT22;15592;53.656;7.276;2023-04-03T03:20:14;0.70;99.90
28336;DHT22;15592;53.656;7.276;2023-04-03T03:22:40;0.70;99.90
28336;DHT22;15592;53.656;7.276;2023-04-03T03:25:06;0.70;99.90
28336;DHT22;15592;53.656;7.276;2023-04-03T03:27:32;0.70;99.90
28336;DHT22;15592;53.656;7.276;2023-04-03T03:29:57;0.70;99.90
28336;DHT22;15592;53.656;7.276;2023-04-03T03:32:23;0.70;99.90
28336;DHT22;15592;53.656;7.276;2023-04-03T03:34:48;0.70;99.90
28336;DHT22;15592;53.656;7.276;2023-04-03T03:37:14;0.70;99.90
28336;DHT22;15592;53.656;7.276;2023-04-03T03:39:40;0.70;99.90
28336;DHT22;15592;53.656;7.276;2023-04-03T03:42:05;0.70;99.90
28336;DHT22;15592;53.656;7.276;2023-04-03T03:44:31;0.70;99.90
28336;DHT22;15592;53.656;7.276;2023-04-03T03:46:56;0.70;99.90
28336;DHT22;15592;53.656;7.276;2023-04-03T03:49:22;0.70;99.90
28336;DHT22;15592;53.656;7.276;2023-04-03T03:51:48;0.70;99.90
28336;DHT22;15592;53.656;7.276;2023-04-03T03:54:15;0.70;99.90
28336;DHT22;15592;53.656;7.276;2023-04-03T03:56:40;0.70;99.90
28336;DHT22;15592;53.656;7.276;2023-04-03T03:59:06;0.70;99.90
28336;DHT22;15592;53.656;7.276;2023-04-03T04:01:32;0.60;99.90
28336;DHT22;15592;53.656;7.276;2023-04-03T04:03:58;0.70;99.90
28336;DHT22;15592;53.656;7.276;2023-04-03T04:06:23;0.60;99.90
28336;DHT22;15592;53.656;7.276;2023-04-03T04:08:49;0.60;99.90
28336;DHT22;15592;53.656;7.276;2023-04-03T04:11:15;0.60;99.90
28336;DHT22;15592;53.656;7.276;2023-04-03T04:13:41;0.60;99.90
28336;DHT22;15592;53.656;7.276;2023-04-03T04:16:07;0.50;99.90
28336;DHT22;15592;53.656;7.276;2023-04-03T04:18:33;0.50;99.90
28336;DHT22;15592;53.656;7.276;2023-04-03T04:20:58;0.50;99.90
28336;DHT22;15592;53.656;7.276;2023-04-03T04:23:24;0.40;99.90
28336;DHT22;15592;53.656;7.276;2023-04-03T04:25:51;0.40;99.90
28336;DHT22;15592;53.656;7.276;2023-04-03T04:28:17;0.40;99.90
28336;DHT22;15592;53.656;7.276;2023-04-03T04:30:43;0.40;99.90
28336;DHT22;15592;53.656;7.276;2023-04-03T04:33:09;0.40;99.90
28336;DHT22;15592;53.656;7.276;2023-04-03T04:35:35;0.40;99.90
28336;DHT22;15592;53.656;7.276;2023-04-03T04:38:01;0.40;99.90
28336;DHT22;15592;53.656;7.276;2023-04-03T04:40:27;0.40;99.90
28336;DHT22;15592;53.656;7.276;2023-04-03T04:42:52;0.40;99.90
28336;DHT22;15592;53.656;7.276;2023-04-03T04:45:18;0.40;99.90
28336;DHT22;15592;53.656;7.276;2023-04-03T04:47:44;0.40;99.90
28336;DHT22;15592;53.656;7.276;2023-04-03T04:50:10;0.40;99.90
28336;DHT22;15592;53.656;7.276;2023-04-03T04:52:37;0.40;99.90
28336;DHT22;15592;53.656;7.276;2023-04-03T04:55:03;0.40;99.90
28336;DHT22;15592;53.656;7.276;2023-04-03T04:57:29;0.40;99.90
28336;DHT22;15592;53.656;7.276;2023-04-03T04:59:54;0.40;99.90
28336;DHT22;15592;53.656;7.276;2023-04-03T05:02:20;0.40;99.90
28336;DHT22;15592;53.656;7.276;2023-04-03T05:04:46;0.40;99.90
28336;DHT22;15592;53.656;7.276;2023-04-03T05:07:11;0.40;99.90
28336;DHT22;15592;53.656;7.276;2023-04-03T05:09:37;0.40;99.90
28336;DHT22;15592;53.656;7.276;2023-04-03T05:12:03;0.40;99.90
28336;DHT22;15592;53.656;7.276;2023-04-03T05:14:28;0.40;99.90
28336;DHT22;15592;53.656;7.276;2023-04-03T05:16:54;0.40;99.90
28336;DHT22;15592;53.656;7.276;2023-04-03T05:19:20;0.40;99.90
28336;DHT22;15592;53.656;7.276;2023-04-03T05:21:46;0.40;99.90
28336;DHT22;15592;53.656;7.276;2023-04-03T05:24:13;0.40;99.90
28336;DHT22;15592;53.656;7.276;2023-04-03T05:26:38;0.40;99.90
28336;DHT22;15592;53.656;7.276;2023-04-03T05:29:04;0.40;99.90
28336;DHT22;15592;53.656;7.276;2023-04-03T05:31:30;0.50;99.90
28336;DHT22;15592;53.656;7.276;2023-04-03T05:33:56;0.50;99.90
28336;DHT22;15592;53.656;7.276;2023-04-03T05:36:22;0.50;99.90
28336;DHT22;15592;53.656;7.276;2023-04-03T05:38:48;0.50;99.90
28336;DHT22;15592;53.656;7.276;2023-04-03T05:41:14;0.60;99.90
28336;DHT22;15592;53.656;7.276;2023-04-03T05:43:40;0.60;99.90
28336;DHT22;15592;53.656;7.276;2023-04-03T05:46:18;0.60;99.90
28336;DHT22;15592;53.656;7.276;2023-04-03T05:48:44;0.60;99.90
28336;DHT22;15592;53.656;7.276;2023-04-03T05:51:24;0.70;99.90
28336;DHT22;15592;53.656;7.276;2023-04-03T05:53:56;0.70;99.90
28336;DHT22;15592;53.656;7.276;2023-04-03T05:56:25;0.80;99.90
28336;DHT22;15592;53.656;7.276;2023-04-03T05:58:50;0.80;99.90
28336;DHT22;15592;53.656;7.276;2023-04-03T06:01:16;0.80;99.90
28336;DHT22;15592;53.656;7.276;2023-04-03T06:03:42;0.90;99.90
28336;DHT22;15592;53.656;7.276;2023-04-03T06:06:07;0.90;99.90
28336;DHT22;15592;53.656;7.276;2023-04-03T06:08:33;0.90;99.90
28336;DHT22;15592;53.656;7.276;2023-04-03T06:11:00;1.00;99.90
28336;DHT22;15592;53.656;7.276;2023-04-03T06:13:27;1.00;99.90
28336;DHT22;15592;53.656;7.276;2023-04-03T06:15:52;1.10;99.90
28336;DHT22;15592;53.656;7.276;2023-04-03T06:18:18;1.10;99.90
28336;DHT22;15592;53.656;7.276;2023-04-03T06:20:44;1.10;99.90
28336;DHT22;15592;53.656;7.276;2023-04-03T06:23:09;1.20;99.90
28336;DHT22;15592;53.656;7.276;2023-04-03T06:25:35;1.20;99.90
28336;DHT22;15592;53.656;7.276;2023-04-03T06:28:01;1.30;99.90
28336;DHT22;15592;53.656;7.276;2023-04-03T06:30:27;1.30;99.90
28336;DHT22;15592;53.656;7.276;2023-04-03T06:32:52;1.40;99.90
28336;DHT22;15592;53.656;7.276;2023-04-03T06:35:18;1.40;99.90
28336;DHT22;15592;53.656;7.276;2023-04-03T06:37:43;1.50;99.90
28336;DHT22;15592;53.656;7.276;2023-04-03T06:40:18;1.50;99.90
28336;DHT22;15592;53.656;7.276;2023-04-03T06:42:45;1.60;99.90
28336;DHT22;15592;53.656;7.276;2023-04-03T06:45:11;1.70;99.90
28336;DHT22;15592;53.656;7.276;2023-04-03T06:47:37;1.70;99.90
28336;DHT22;15592;53.656;7.276;2023-04-03T06:50:02;1.80;99.90
28336;DHT22;15592;53.656;7.276;2023-04-03T06:52:28;1.80;99.90
28336;DHT22;15592;53.656;7.276;2023-04-03T06:54:53;1.90;99.90
28336;DHT22;15592;53.656;7.276;2023-04-03T06:57:22;2.00;99.90
28336;DHT22;15592;53.656;7.276;2023-04-03T06:59:48;2.00;99.90
28336;DHT22;15592;53.656;7.276;2023-04-03T07:02:14;2.10;99.90
28336;DHT22;15592;53.656;7.276;2023-04-03T07:04:40;2.10;99.90
28336;DHT22;15592;53.656;7.276;2023-04-03T07:07:05;2.20;99.90
28336;DHT22;15592;53.656;7.276;2023-04-03T07:09:31;2.20;99.90
28336;DHT22;15592;53.656;7.276;2023-04-03T07:11:57;2.30;99.90
28336;DHT22;15592;53.656;7.276;2023-04-03T07:14:22;2.40;99.90
28336;DHT22;15592;53.656;7.276;2023-04-03T07:16:48;2.40;99.90
28336;DHT22;15592;53.656;7.276;2023-04-03T07:19:13;2.50;99.90
28336;DHT22;15592;53.656;7.276;2023-04-03T07:21:39;2.70;99.90
28336;DHT22;15592;53.656;7.276;2023-04-03T07:24:07;2.80;99.90
28336;DHT22;15592;53.656;7.276;2023-04-03T07:26:33;2.90;99.90
28336;DHT22;15592;53.656;7.276;2023-04-03T07:28:58;3.00;99.90
28336;DHT22;15592;53.656;7.276;2023-04-03T07:31:25;3.10;99.90
28336;DHT22;15592;53.656;7.276;2023-04-03T07:33:50;3.20;99.90
28336;DHT22;15592;53.656;7.276;2023-04-03T07:36:19;3.30;99.90
28336;DHT22;15592;53.656;7.276;2023-04-03T07:38:45;3.40;99.90
28336;DHT22;15592;53.656;7.276;2023-04-03T07:41:14;3.50;99.90
28336;DHT22;15592;53.656;7.276;2023-04-03T07:43:40;3.60;99.90
28336;DHT22;15592;53.656;7.276;2023-04-03T07:46:07;3.70;99.90
28336;DHT22;15592;53.656;7.276;2023-04-03T07:48:33;3.80;99.90
28336;DHT22;15592;53.656;7.276;2023-04-03T07:51:01;4.00;99.90
28336;DHT22;15592;53.656;7.276;2023-04-03T07:53:27;4.10;99.90
28336;DHT22;15592;53.656;7.276;2023-04-03T07:55:53;4.10;99.90
28336;DHT22;15592;53.656;7.276;2023-04-03T07:58:21;4.20;99.90
28336;DHT22;15592;53.656;7.276;2023-04-03T08:00:47;4.30;99.90
28336;DHT22;15592;53.656;7.276;2023-04-03T08:03:14;4.30;99.90
28336;DHT22;15592;53.656;7.276;2023-04-03T08:05:45;4.40;99.90
28336;DHT22;15592;53.656;7.276;2023-04-03T08:08:14;4.50;99.90
28336;DHT22;15592;53.656;7.276;2023-04-03T08:10:41;4.60;99.90
28336;DHT22;15592;53.656;7.276;2023-04-03T08:13:08;4.70;99.90
28336;DHT22;15592;53.656;7.276;2023-04-03T08:15:34;4.80;99.90
28336;DHT22;15592;53.656;7.276;2023-04-03T08:18:00;4.80;99.90
28336;DHT22;15592;53.656;7.276;2023-04-03T08:20:26;4.90;99.90
28336;DHT22;15592;53.656;7.276;2023-04-03T08:22:52;5.00;99.90
28336;DHT22;15592;53.656;7.276;2023-04-03T08:25:18;5.00;99.90
28336;DHT22;15592;53.656;7.276;2023-04-03T08:27:44;5.10;99.90
28336;DHT22;15592;53.656;7.276;2023-04-03T08:30:10;5.20;99.90
28336;DHT22;15592;53.656;7.276;2023-04-03T08:32:36;5.20;99.90
28336;DHT22;15592;53.656;7.276;2023-04-03T08:35:03;5.30;99.90
28336;DHT22;15592;53.656;7.276;2023-04-03T08:37:30;5.30;99.90
28336;DHT22;15592;53.656;7.276;2023-04-03T08:39:55;5.30;99.90
28336;DHT22;15592;53.656;7.276;2023-04-03T08:45:15;5.40;99.90
28336;DHT22;15592;53.656;7.276;2023-04-03T08:48:05;5.50;99.90
28336;DHT22;15592;53.656;7.276;2023-04-03T08:50:44;5.60;99.90
28336;DHT22;15592;53.656;7.276;2023-04-03T08:53:24;5.60;99.90
28336;DHT22;15592;53.656;7.276;2023-04-03T08:55:53;5.70;99.90
28336;DHT22;15592;53.656;7.276;2023-04-03T08:58:24;5.70;99.90
28336;DHT22;15592;53.656;7.276;2023-04-03T09:01:05;5.80;99.90
28336;DHT22;15592;53.656;7.276;2023-04-03T09:03:38;5.90;99.90
28336;DHT22;15592;53.656;7.276;2023-04-03T09:06:13;5.90;99.90
28336;DHT22;15592;53.656;7.276;2023-04-03T09:14:30;6.10;99.90
28336;DHT22;15592;53.656;7.276;2023-04-03T09:17:01;6.10;99.90
28336;DHT22;15592;53.656;7.276;2023-04-03T09:22:02;6.20;99.90
28336;DHT22;15592;53.656;7.276;2023-04-03T09:24:28;6.30;99.90
28336;DHT22;15592;53.656;7.276;2023-04-03T09:27:03;6.40;99.90
28336;DHT22;15592;53.656;7.276;2023-04-03T09:29:31;6.40;99.90
28336;DHT22;15592;53.656;7.276;2023-04-03T09:32:09;6.40;99.90
28336;DHT22;15592;53.656;7.276;2023-04-03T09:34:41;6.40;99.90
28336;DHT22;15592;53.656;7.276;2023-04-03T09:37:07;6.50;99.90
28336;DHT22;15592;53.656;7.276;2023-04-03T09:39:52;6.50;99.90
28336;DHT22;15592;53.656;7.276;2023-04-03T09:42:24;6.60;99.90
28336;DHT22;15592;53.656;7.276;2023-04-03T09:44:56;6.70;99.90
28336;DHT22;15592;53.656;7.276;2023-04-03T09:47:27;6.60;99.90
28336;DHT22;15592;53.656;7.276;2023-04-03T09:50:20;6.60;99.90
28336;DHT22;15592;53.656;7.276;2023-04-03T09:52:48;6.60;99.90
28336;DHT22;15592;53.656;7.276;2023-04-03T09:55:16;6.70;99.90
28336;DHT22;15592;53.656;7.276;2023-04-03T09:57:44;6.90;99.90
28336;DHT22;15592;53.656;7.276;2023-04-03T10:00:22;7.10;99.90
28336;DHT22;15592;53.656;7.276;2023-04-03T10:02:51;7.30;99.90
28336;DHT22;15592;53.656;7.276;2023-04-03T10:10:43;7.50;99.90
28336;DHT22;15592;53.656;7.276;2023-04-03T10:13:12;7.50;99.90
28336;DHT22;15592;53.656;7.276;2023-04-03T10:15:42;7.60;99.90
28336;DHT22;15592;53.656;7.276;2023-04-03T10:20:51;7.40;99.90
28336;DHT22;15592;53.656;7.276;2023-04-03T10:23:22;7.30;99.90
28336;DHT22;15592;53.656;7.276;2023-04-03T10:26:07;7.10;99.90
28336;DHT22;15592;53.656;7.276;2023-04-03T10:29:02;7.20;99.90
28336;DHT22;15592;53.656;7.276;2023-04-03T10:34:21;7.10;99.90
28336;DHT22;15592;53.656;7.276;2023-04-03T10:40:02;7.20;99.90
28336;DHT22;15592;53.656;7.276;2023-04-03T10:45:18;7.20;99.90
28336;DHT22;15592;53.656;7.276;2023-04-03T10:51:22;7.00;99.90
28336;DHT22;15592;53.656;7.276;2023-04-03T10:53:53;7.00;99.90
28336;DHT22;15592;53.656;7.276;2023-04-03T10:56:41;7.00;99.90
28336;DHT22;15592;53.656;7.276;2023-04-03T10:59:18;7.00;99.90
28336;DHT22;15592;53.656;7.276;2023-04-03T11:01:51;7.10;99.90
28336;DHT22;15592;53.656;7.276;2023-04-03T11:04:19;7.30;99.90
28336;DHT22;15592;53.656;7.276;2023-04-03T11:06:53;7.40;99.90
28336;DHT22;15592;53.656;7.276;2023-04-03T11:09:34;7.50;99.90
28336;DHT22;15592;53.656;7.276;2023-04-03T11:12:29;7.70;99.90
28336;DHT22;15592;53.656;7.276;2023-04-03T11:14:59;7.70;99.90
28336;DHT22;15592;53.656;7.276;2023-04-03T11:17:35;7.70;98.40
28336;DHT22;15592;53.656;7.276;2023-04-03T11:20:17;7.70;98.20
28336;DHT22;15592;53.656;7.276;2023-04-03T11:22:50;7.60;99.80
28336;DHT22;15592;53.656;7.276;2023-04-03T11:25:24;7.70;98.60
28336;DHT22;15592;53.656;7.276;2023-04-03T11:28:04;7.70;98.20
28336;DHT22;15592;53.656;7.276;2023-04-03T11:33:12;7.90;99.30
28336;DHT22;15592;53.656;7.276;2023-04-03T11:35:47;7.90;97.90
28336;DHT22;15592;53.656;7.276;2023-04-03T11:38:35;7.90;96.50
28336;DHT22;15592;53.656;7.276;2023-04-03T11:41:03;7.80;95.00
28336;DHT22;15592;53.656;7.276;2023-04-03T11:43:31;7.80;95.40
28336;DHT22;15592;53.656;7.276;2023-04-03T11:46:04;7.70;92.60
28336;DHT22;15592;53.656;7.276;2023-04-03T11:53:40;7.70;91.30
28336;DHT22;15592;53.656;7.276;2023-04-03T12:04:12;8.00;97.10
28336;DHT22;15592;53.656;7.276;2023-04-03T12:09:29;7.90;99.20
28336;DHT22;15592;53.656;7.276;2023-04-03T12:11:58;8.00;99.90
28336;DHT22;15592;53.656;7.276;2023-04-03T12:14:25;8.00;99.90
28336;DHT22;15592;53.656;7.276;2023-04-03T12:16:53;8.00;99.90
28336;DHT22;15592;53.656;7.276;2023-04-03T12:19:37;8.00;99.90
28336;DHT22;15592;53.656;7.276;2023-04-03T12:22:12;7.90;99.90
28336;DHT22;15592;53.656;7.276;2023-04-03T12:24:43;7.90;99.90
28336;DHT22;15592;53.656;7.276;2023-04-03T12:27:28;7.80;99.90
28336;DHT22;15592;53.656;7.276;2023-04-03T12:46:23;7.80;99.90
28336;DHT22;15592;53.656;7.276;2023-04-03T12:48:59;7.80;99.90
28336;DHT22;15592;53.656;7.276;2023-04-03T12:51:37;7.70;99.90
28336;DHT22;15592;53.656;7.276;2023-04-03T12:54:18;7.70;99.90
28336;DHT22;15592;53.656;7.276;2023-04-03T12:56:45;7.60;99.90
28336;DHT22;15592;53.656;7.276;2023-04-03T12:59:16;7.60;99.90
28336;DHT22;15592;53.656;7.276;2023-04-03T13:01:44;7.60;99.90
28336;DHT22;15592;53.656;7.276;2023-04-03T13:04:12;7.60;99.90
28336;DHT22;15592;53.656;7.276;2023-04-03T13:06:40;7.60;99.90
28336;DHT22;15592;53.656;7.276;2023-04-03T13:09:30;7.60;99.90
28336;DHT22;15592;53.656;7.276;2023-04-03T13:12:10;7.60;99.90
28336;DHT22;15592;53.656;7.276;2023-04-03T13:14:37;7.50;99.90
28336;DHT22;15592;53.656;7.276;2023-04-03T13:17:15;7.50;99.90
28336;DHT22;15592;53.656;7.276;2023-04-03T13:19:42;7.40;99.90
28336;DHT22;15592;53.656;7.276;2023-04-03T13:22:34;7.40;99.90
28336;DHT22;15592;53.656;7.276;2023-04-03T13:25:06;7.40;99.90
28336;DHT22;15592;53.656;7.276;2023-04-03T13:27:33;7.40;99.90
28336;DHT22;15592;53.656;7.276;2023-04-03T13:30:01;7.40;99.90
28336;DHT22;15592;53.656;7.276;2023-04-03T13:32:28;7.40;99.90
28336;DHT22;15592;53.656;7.276;2023-04-03T13:34:55;7.30;99.90
28336;DHT22;15592;53.656;7.276;2023-04-03T13:37:31;7.30;99.90
28336;DHT22;15592;53.656;7.276;2023-04-03T13:40:11;7.40;99.90
28336;DHT22;15592;53.656;7.276;2023-04-03T13:42:40;7.40;99.90
28336;DHT22;15592;53.656;7.276;2023-04-03T13:45:25;7.30;99.90
28336;DHT22;15592;53.656;7.276;2023-04-03T13:48:07;7.30;99.90
28336;DHT22;15592;53.656;7.276;2023-04-03T13:53:48;7.30;99.90
28336;DHT22;15592;53.656;7.276;2023-04-03T13:56:38;7.20;99.90
28336;DHT22;15592;53.656;7.276;2023-04-03T14:04:19;7.20;99.90
28336;DHT22;15592;53.656;7.276;2023-04-03T14:06:46;7.20;99.90
28336;DHT22;15592;53.656;7.276;2023-04-03T14:09:12;7.20;99.90
28336;DHT22;15592;53.656;7.276;2023-04-03T14:11:39;7.20;99.90
28336;DHT22;15592;53.656;7.276;2023-04-03T14:14:15;7.10;99.90
28336;DHT22;15592;53.656;7.276;2023-04-03T14:16:44;7.00;99.90
28336;DHT22;15592;53.656;7.276;2023-04-03T14:19:29;7.10;99.90
28336;DHT22;15592;53.656;7.276;2023-04-03T14:21:55;7.00;99.90
28336;DHT22;15592;53.656;7.276;2023-04-03T14:24:22;7.00;99.90
28336;DHT22;15592;53.656;7.276;2023-04-03T14:26:50;7.00;99.90
28336;DHT22;15592;53.656;7.276;2023-04-03T14:29:16;7.00;99.90
28336;DHT22;15592;53.656;7.276;2023-04-03T14:31:43;7.00;99.90
28336;DHT22;15592;53.656;7.276;2023-04-03T14:34:10;7.00;99.90
28336;DHT22;15592;53.656;7.276;2023-04-03T14:36:38;7.00;99.90
28336;DHT22;15592;53.656;7.276;2023-04-03T14:39:06;6.90;99.90
28336;DHT22;15592;53.656;7.276;2023-04-03T14:41:34;6.90;99.90
28336;DHT22;15592;53.656;7.276;2023-04-03T14:44:00;6.90;99.90
28336;DHT22;15592;53.656;7.276;2023-04-03T14:46:30;6.90;99.90
28336;DHT22;15592;53.656;7.276;2023-04-03T14:48:56;7.00;99.90
28336;DHT22;15592;53.656;7.276;2023-04-03T14:51:23;7.10;99.90
28336;DHT22;15592;53.656;7.276;2023-04-03T14:53:49;7.10;99.90
28336;DHT22;15592;53.656;7.276;2023-04-03T14:56:19;7.10;99.90
28336;DHT22;15592;53.656;7.276;2023-04-03T14:58:48;7.00;99.90
28336;DHT22;15592;53.656;7.276;2023-04-03T15:01:16;7.00;99.90
28336;DHT22;15592;53.656;7.276;2023-04-03T15:03:42;7.00;99.90
28336;DHT22;15592;53.656;7.276;2023-04-03T15:06:13;7.00;99.90
28336;DHT22;15592;53.656;7.276;2023-04-03T15:08:40;7.00;99.90
28336;DHT22;15592;53.656;7.276;2023-04-03T15:11:08;7.00;99.90
28336;DHT22;15592;53.656;7.276;2023-04-03T15:13:33;6.90;99.90
28336;DHT22;15592;53.656;7.276;2023-04-03T15:15:59;6.90;99.90
28336;DHT22;15592;53.656;7.276;2023-04-03T15:18:27;6.90;99.90
28336;DHT22;15592;53.656;7.276;2023-04-03T15:20:54;6.90;99.90
28336;DHT22;15592;53.656;7.276;2023-04-03T15:23:20;6.90;99.90
28336;DHT22;15592;53.656;7.276;2023-04-03T15:25:51;6.90;99.90
28336;DHT22;15592;53.656;7.276;2023-04-03T15:28:41;6.90;99.90
28336;DHT22;15592;53.656;7.276;2023-04-03T15:31:08;7.00;99.90
28336;DHT22;15592;53.656;7.276;2023-04-03T15:33:35;6.90;99.90
28336;DHT22;15592;53.656;7.276;2023-04-03T15:36:01;7.00;99.90
28336;DHT22;15592;53.656;7.276;2023-04-03T15:38:27;7.00;99.90
28336;DHT22;15592;53.656;7.276;2023-04-03T15:40:54;7.00;99.90
28336;DHT22;15592;53.656;7.276;2023-04-03T15:43:20;7.00;99.90
28336;DHT22;15592;53.656;7.276;2023-04-03T15:45:46;7.00;99.90
28336;DHT22;15592;53.656;7.276;2023-04-03T15:48:12;6.90;99.90
28336;DHT22;15592;53.656;7.276;2023-04-03T15:54:00;6.90;99.90
28336;DHT22;15592;53.656;7.276;2023-04-03T15:56:42;6.90;99.90
28336;DHT22;15592;53.656;7.276;2023-04-03T15:59:11;7.00;99.90
28336;DHT22;15592;53.656;7.276;2023-04-03T16:05:13;7.00;99.90
28336;DHT22;15592;53.656;7.276;2023-04-03T16:07:41;6.90;99.90
28336;DHT22;15592;53.656;7.276;2023-04-03T16:13:34;6.90;99.90
28336;DHT22;15592;53.656;7.276;2023-04-03T16:16:24;6.90;99.90
28336;DHT22;15592;53.656;7.276;2023-04-03T16:18:54;6.90;99.90
28336;DHT22;15592;53.656;7.276;2023-04-03T16:24:08;6.90;99.90
28336;DHT22;15592;53.656;7.276;2023-04-03T16:26:59;6.90;99.90
28336;DHT22;15592;53.656;7.276;2023-04-03T16:29:32;6.80;99.90
28336;DHT22;15592;53.656;7.276;2023-04-03T16:32:07;6.90;99.90
28336;DHT22;15592;53.656;7.276;2023-04-03T16:34:33;6.90;99.90
28336;DHT22;15592;53.656;7.276;2023-04-03T16:36:59;6.80;99.90
28336;DHT22;15592;53.656;7.276;2023-04-03T16:39:25;6.80;99.90
28336;DHT22;15592;53.656;7.276;2023-04-03T16:41:50;6.70;99.90
28336;DHT22;15592;53.656;7.276;2023-04-03T16:44:16;6.80;99.90
28336;DHT22;15592;53.656;7.276;2023-04-03T16:46:42;6.70;99.90
28336;DHT22;15592;53.656;7.276;2023-04-03T16:49:07;6.70;99.90
28336;DHT22;15592;53.656;7.276;2023-04-03T16:51:38;6.60;99.90
28336;DHT22;15592;53.656;7.276;2023-04-03T16:54:06;6.50;99.90
28336;DHT22;15592;53.656;7.276;2023-04-03T16:56:32;6.40;99.90
28336;DHT22;15592;53.656;7.276;2023-04-03T16:58:58;6.40;99.90
28336;DHT22;15592;53.656;7.276;2023-04-03T17:01:24;6.30;99.90
28336;DHT22;15592;53.656;7.276;2023-04-03T17:03:50;6.30;99.90
28336;DHT22;15592;53.656;7.276;2023-04-03T17:06:17;6.20;99.90
28336;DHT22;15592;53.656;7.276;2023-04-03T17:08:45;6.20;99.90
28336;DHT22;15592;53.656;7.276;2023-04-03T17:11:12;6.20;99.90
28336;DHT22;15592;53.656;7.276;2023-04-03T17:13:37;6.10;99.90
28336;DHT22;15592;53.656;7.276;2023-04-03T17:16:05;6.10;99.90
28336;DHT22;15592;53.656;7.276;2023-04-03T17:18:39;6.10;99.90
28336;DHT22;15592;53.656;7.276;2023-04-03T17:21:15;5.90;99.90
28336;DHT22;15592;53.656;7.276;2023-04-03T17:23:44;5.90;99.90
28336;DHT22;15592;53.656;7.276;2023-04-03T17:26:11;5.90;99.90
28336;DHT22;15592;53.656;7.276;2023-04-03T17:28:37;5.80;99.90
28336;DHT22;15592;53.656;7.276;2023-04-03T17:31:05;5.80;99.90
28336;DHT22;15592;53.656;7.276;2023-04-03T17:33:30;5.70;99.90